sensor_id;sensor_type;location;lat;lon;timestamp;P1;durP1;ratioP1;P2;durP2;ratioP2
22525;SDS011;11429;50.842;4.386;2023-05-23T00:01:04;61.58;;;31.92;;
22525;SDS011;11429;50.842;4.386;2023-05-23T00:03:31;60.85;;;33.05;;
22525;SDS011;11429;50.842;4.386;2023-05-23T00:05:57;58.20;;;32.67;;
22525;SDS011;11429;50.842;4.386;2023-05-23T00:08:23;65.97;;;34.13;;
22525;SDS011;11429;50.842;4.386;2023-05-23T00:10:49;65.50;;;35.05;;
22525;SDS011;11429;50.842;4.386;2023-05-23T00:13:15;61.53;;;33.83;;
22525;SDS011;11429;50.842;4.386;2023-05-23T00:15:41;69.90;;;35.88;;
22525;SDS011;11429;50.842;4.386;2023-05-23T00:18:07;66.95;;;34.33;;
22525;SDS011;11429;50.842;4.386;2023-05-23T00:20:35;71.50;;;34.85;;
22525;SDS011;11429;50.842;4.386;2023-05-23T00:23:04;62.83;;;33.20;;
22525;SDS011;11429;50.842;4.386;2023-05-23T00:25:32;61.53;;;35.28;;
22525;SDS011;11429;50.842;4.386;2023-05-23T00:28:00;60.50;;;33.53;;
22525;SDS011;11429;50.842;4.386;2023-05-23T00:30:28;57.30;;;31.30;;
22525;SDS011;11429;50.842;4.386;2023-05-23T00:32:54;54.95;;;30.60;;
22525;SDS011;11429;50.842;4.386;2023-05-23T00:35:20;61.05;;;30.65;;
22525;SDS011;11429;50.842;4.386;2023-05-23T00:37:47;50.58;;;29.50;;
22525;SDS011;11429;50.842;4.386;2023-05-23T00:40:16;57.83;;;29.52;;
22525;SDS011;11429;50.842;4.386;2023-05-23T00:42:42;56.60;;;29.83;;
22525;SDS011;11429;50.842;4.386;2023-05-23T00:45:08;55.97;;;29.88;;
22525;SDS011;11429;50.842;4.386;2023-05-23T00:47:36;53.53;;;29.70;;
22525;SDS011;11429;50.842;4.386;2023-05-23T00:50:03;54.50;;;29.98;;
22525;SDS011;11429;50.842;4.386;2023-05-23T00:52:35;53.42;;;29.08;;
22525;SDS011;11429;50.842;4.386;2023-05-23T00:55:02;53.97;;;29.42;;
22525;SDS011;11429;50.842;4.386;2023-05-23T00:57:28;52.53;;;30.67;;
22525;SDS011;11429;50.842;4.386;2023-05-23T00:59:54;57.60;;;30.80;;
22525;SDS011;11429;50.842;4.386;2023-05-23T01:02:20;53.95;;;30.50;;
22525;SDS011;11429;50.842;4.386;2023-05-23T01:04:49;49.72;;;29.80;;
22525;SDS011;11429;50.842;4.386;2023-05-23T01:07:18;51.72;;;30.58;;
22525;SDS011;11429;50.842;4.386;2023-05-23T01:09:47;52.92;;;30.38;;
22525;SDS011;11429;50.842;4.386;2023-05-23T01:15:03;56.20;;;33.28;;
22525;SDS011;11429;50.842;4.386;2023-05-23T01:20:29;61.38;;;34.50;;
22525;SDS011;11429;50.842;4.386;2023-05-23T01:23:09;63.22;;;34.13;;
22525;SDS011;11429;50.842;4.386;2023-05-23T01:28:30;60.13;;;32.58;;
22525;SDS011;11429;50.842;4.386;2023-05-23T01:31:00;57.33;;;31.38;;
22525;SDS011;11429;50.842;4.386;2023-05-23T01:33:27;56.08;;;31.45;;
22525;SDS011;11429;50.842;4.386;2023-05-23T01:35:55;54.85;;;31.88;;
22525;SDS011;11429;50.842;4.386;2023-05-23T01:38:24;54.78;;;29.95;;
22525;SDS011;11429;50.842;4.386;2023-05-23T01:40:50;54.33;;;29.75;;
22525;SDS011;11429;50.842;4.386;2023-05-23T01:43:15;48.92;;;28.67;;
22525;SDS011;11429;50.842;4.386;2023-05-23T01:45:41;49.97;;;28.15;;
22525;SDS011;11429;50.842;4.386;2023-05-23T01:48:07;46.05;;;28.30;;
22525;SDS011;11429;50.842;4.386;2023-05-23T01:50:35;45.90;;;27.30;;
22525;SDS011;11429;50.842;4.386;2023-05-23T01:53:01;48.60;;;28.38;;
22525;SDS011;11429;50.842;4.386;2023-05-23T01:55:27;45.70;;;27.30;;
22525;SDS011;11429;50.842;4.386;2023-05-23T01:57:53;47.70;;;26.02;;
22525;SDS011;11429;50.842;4.386;2023-05-23T02:00:21;38.55;;;24.33;;
22525;SDS011;11429;50.842;4.386;2023-05-23T02:02:47;47.25;;;26.58;;
22525;SDS011;11429;50.842;4.386;2023-05-23T02:05:12;52.30;;;27.98;;
22525;SDS011;11429;50.842;4.386;2023-05-23T02:07:38;41.40;;;26.35;;
22525;SDS011;11429;50.842;4.386;2023-05-23T02:10:06;41.88;;;25.23;;
22525;SDS011;11429;50.842;4.386;2023-05-23T02:12:33;41.97;;;24.85;;
22525;SDS011;11429;50.842;4.386;2023-05-23T02:14:58;41.95;;;26.17;;
22525;SDS011;11429;50.842;4.386;2023-05-23T02:17:24;42.17;;;24.05;;
22525;SDS011;11429;50.842;4.386;2023-05-23T02:19:50;39.50;;;25.08;;
22525;SDS011;11429;50.842;4.386;2023-05-23T02:22:16;41.90;;;25.92;;
22525;SDS011;11429;50.842;4.386;2023-05-23T02:24:41;41.22;;;24.33;;
22525;SDS011;11429;50.842;4.386;2023-05-23T02:27:07;39.35;;;24.42;;
22525;SDS011;11429;50.842;4.386;2023-05-23T02:29:33;43.17;;;25.83;;
22525;SDS011;11429;50.842;4.386;2023-05-23T02:31:58;43.55;;;25.42;;
22525;SDS011;11429;50.842;4.386;2023-05-23T02:34:24;36.50;;;23.75;;
22525;SDS011;11429;50.842;4.386;2023-05-23T02:36:50;37.08;;;22.95;;
22525;SDS011;11429;50.842;4.386;2023-05-23T02:39:16;37.85;;;21.13;;
22525;SDS011;11429;50.842;4.386;2023-05-23T02:41:42;30.70;;;21.83;;
22525;SDS011;11429;50.842;4.386;2023-05-23T02:44:07;30.65;;;20.33;;
22525;SDS011;11429;50.842;4.386;2023-05-23T02:46:33;27.05;;;19.10;;
22525;SDS011;11429;50.842;4.386;2023-05-23T02:48:59;28.55;;;19.45;;
22525;SDS011;11429;50.842;4.386;2023-05-23T02:51:24;26.17;;;18.45;;
22525;SDS011;11429;50.842;4.386;2023-05-23T02:53:50;24.85;;;17.95;;
22525;SDS011;11429;50.842;4.386;2023-05-23T02:56:16;28.08;;;17.92;;
22525;SDS011;11429;50.842;4.386;2023-05-23T02:58:42;34.95;;;19.38;;
22525;SDS011;11429;50.842;4.386;2023-05-23T03:01:08;29.60;;;18.17;;
22525;SDS011;11429;50.842;4.386;2023-05-23T03:03:34;27.90;;;18.42;;
22525;SDS011;11429;50.842;4.386;2023-05-23T03:06:00;31.65;;;19.42;;
22525;SDS011;11429;50.842;4.386;2023-05-23T03:08:27;28.88;;;19.08;;
22525;SDS011;11429;50.842;4.386;2023-05-23T03:10:52;30.30;;;17.15;;
22525;SDS011;11429;50.842;4.386;2023-05-23T03:13:18;30.15;;;19.42;;
22525;SDS011;11429;50.842;4.386;2023-05-23T03:15:44;29.20;;;19.10;;
22525;SDS011;11429;50.842;4.386;2023-05-23T03:18:10;27.52;;;19.08;;
22525;SDS011;11429;50.842;4.386;2023-05-23T03:20:36;35.58;;;20.40;;
22525;SDS011;11429;50.842;4.386;2023-05-23T03:23:02;28.38;;;19.55;;
22525;SDS011;11429;50.842;4.386;2023-05-23T03:25:28;34.90;;;21.52;;
22525;SDS011;11429;50.842;4.386;2023-05-23T03:27:53;34.80;;;22.67;;
22525;SDS011;11429;50.842;4.386;2023-05-23T03:30:20;36.38;;;21.85;;
22525;SDS011;11429;50.842;4.386;2023-05-23T03:32:45;37.65;;;23.52;;
22525;SDS011;11429;50.842;4.386;2023-05-23T03:35:11;44.88;;;23.73;;
22525;SDS011;11429;50.842;4.386;2023-05-23T03:37:37;38.55;;;24.38;;
22525;SDS011;11429;50.842;4.386;2023-05-23T03:40:03;39.20;;;24.50;;
22525;SDS011;11429;50.842;4.386;2023-05-23T03:42:29;43.90;;;26.92;;
22525;SDS011;11429;50.842;4.386;2023-05-23T03:44:55;45.90;;;27.23;;
22525;SDS011;11429;50.842;4.386;2023-05-23T03:47:21;45.83;;;28.95;;
22525;SDS011;11429;50.842;4.386;2023-05-23T03:49:48;44.30;;;28.88;;
22525;SDS011;11429;50.842;4.386;2023-05-23T03:52:14;46.78;;;30.05;;
22525;SDS011;11429;50.842;4.386;2023-05-23T03:54:40;44.22;;;30.65;;
22525;SDS011;11429;50.842;4.386;2023-05-23T03:57:06;47.75;;;31.42;;
22525;SDS011;11429;50.842;4.386;2023-05-23T03:59:32;46.95;;;30.83;;
22525;SDS011;11429;50.842;4.386;2023-05-23T04:01:58;52.13;;;35.13;;
22525;SDS011;11429;50.842;4.386;2023-05-23T04:04:25;52.50;;;33.53;;
22525;SDS011;11429;50.842;4.386;2023-05-23T04:06:53;56.55;;;36.30;;
22525;SDS011;11429;50.842;4.386;2023-05-23T04:09:19;56.67;;;35.78;;
22525;SDS011;11429;50.842;4.386;2023-05-23T04:11:45;52.35;;;34.00;;
22525;SDS011;11429;50.842;4.386;2023-05-23T04:14:11;47.45;;;29.83;;
22525;SDS011;11429;50.842;4.386;2023-05-23T04:16:37;44.72;;;28.45;;
22525;SDS011;11429;50.842;4.386;2023-05-23T04:19:05;40.10;;;27.38;;
22525;SDS011;11429;50.842;4.386;2023-05-23T04:21:31;37.47;;;23.75;;
22525;SDS011;11429;50.842;4.386;2023-05-23T04:23:57;35.13;;;22.85;;
22525;SDS011;11429;50.842;4.386;2023-05-23T04:26:23;31.73;;;20.52;;
22525;SDS011;11429;50.842;4.386;2023-05-23T04:28:49;27.02;;;18.50;;
22525;SDS011;11429;50.842;4.386;2023-05-23T04:31:18;25.45;;;20.02;;
22525;SDS011;11429;50.842;4.386;2023-05-23T04:33:47;25.90;;;18.25;;
22525;SDS011;11429;50.842;4.386;2023-05-23T04:36:13;26.10;;;17.00;;
22525;SDS011;11429;50.842;4.386;2023-05-23T04:38:39;26.88;;;16.00;;
22525;SDS011;11429;50.842;4.386;2023-05-23T04:41:05;28.10;;;16.17;;
22525;SDS011;11429;50.842;4.386;2023-05-23T04:43:34;25.13;;;16.02;;
22525;SDS011;11429;50.842;4.386;2023-05-23T04:46:01;24.58;;;16.45;;
22525;SDS011;11429;50.842;4.386;2023-05-23T04:48:27;24.13;;;14.52;;
22525;SDS011;11429;50.842;4.386;2023-05-23T04:50:53;20.88;;;15.60;;
22525;SDS011;11429;50.842;4.386;2023-05-23T04:53:20;21.30;;;14.65;;
22525;SDS011;11429;50.842;4.386;2023-05-23T04:55:46;19.58;;;14.88;;
22525;SDS011;11429;50.842;4.386;2023-05-23T04:58:12;23.27;;;15.38;;
22525;SDS011;11429;50.842;4.386;2023-05-23T05:00:38;22.83;;;15.52;;
22525;SDS011;11429;50.842;4.386;2023-05-23T05:03:04;28.35;;;15.57;;
22525;SDS011;11429;50.842;4.386;2023-05-23T05:05:30;24.67;;;15.68;;
22525;SDS011;11429;50.842;4.386;2023-05-23T05:07:55;21.13;;;16.38;;
22525;SDS011;11429;50.842;4.386;2023-05-23T05:10:21;26.33;;;16.00;;
22525;SDS011;11429;50.842;4.386;2023-05-23T05:12:47;22.23;;;16.50;;
22525;SDS011;11429;50.842;4.386;2023-05-23T05:15:16;29.27;;;16.35;;
22525;SDS011;11429;50.842;4.386;2023-05-23T05:17:42;25.48;;;17.33;;
22525;SDS011;11429;50.842;4.386;2023-05-23T05:20:09;28.67;;;18.27;;
22525;SDS011;11429;50.842;4.386;2023-05-23T05:22:35;29.08;;;19.80;;
22525;SDS011;11429;50.842;4.386;2023-05-23T05:25:04;32.00;;;20.05;;
22525;SDS011;11429;50.842;4.386;2023-05-23T05:27:31;28.83;;;19.83;;
22525;SDS011;11429;50.842;4.386;2023-05-23T05:29:57;30.27;;;21.23;;
22525;SDS011;11429;50.842;4.386;2023-05-23T05:32:28;30.52;;;20.63;;
22525;SDS011;11429;50.842;4.386;2023-05-23T05:34:55;32.28;;;19.00;;
22525;SDS011;11429;50.842;4.386;2023-05-23T05:37:21;31.77;;;18.65;;
22525;SDS011;11429;50.842;4.386;2023-05-23T05:39:46;31.92;;;19.05;;
22525;SDS011;11429;50.842;4.386;2023-05-23T05:42:12;32.95;;;16.17;;
22525;SDS011;11429;50.842;4.386;2023-05-23T05:44:38;28.73;;;16.90;;
22525;SDS011;11429;50.842;4.386;2023-05-23T05:47:06;30.20;;;16.77;;
22525;SDS011;11429;50.842;4.386;2023-05-23T05:49:32;30.58;;;17.08;;
22525;SDS011;11429;50.842;4.386;2023-05-23T05:51:58;31.45;;;18.20;;
22525;SDS011;11429;50.842;4.386;2023-05-23T05:54:23;33.13;;;16.80;;
22525;SDS011;11429;50.842;4.386;2023-05-23T05:56:49;33.03;;;16.58;;
22525;SDS011;11429;50.842;4.386;2023-05-23T05:59:15;36.83;;;16.65;;
22525;SDS011;11429;50.842;4.386;2023-05-23T06:01:42;34.13;;;15.40;;
22525;SDS011;11429;50.842;4.386;2023-05-23T06:04:09;30.05;;;14.82;;
22525;SDS011;11429;50.842;4.386;2023-05-23T06:06:34;27.83;;;13.90;;
22525;SDS011;11429;50.842;4.386;2023-05-23T06:09:00;36.90;;;14.63;;
22525;SDS011;11429;50.842;4.386;2023-05-23T06:11:26;32.95;;;14.75;;
22525;SDS011;11429;50.842;4.386;2023-05-23T06:13:51;29.33;;;14.60;;
22525;SDS011;11429;50.842;4.386;2023-05-23T06:16:17;32.33;;;14.85;;
22525;SDS011;11429;50.842;4.386;2023-05-23T06:18:43;38.15;;;15.32;;
22525;SDS011;11429;50.842;4.386;2023-05-23T06:21:09;39.40;;;15.85;;
22525;SDS011;11429;50.842;4.386;2023-05-23T06:23:35;41.05;;;15.65;;
22525;SDS011;11429;50.842;4.386;2023-05-23T06:26:00;41.63;;;16.02;;
22525;SDS011;11429;50.842;4.386;2023-05-23T06:28:26;35.47;;;15.45;;
22525;SDS011;11429;50.842;4.386;2023-05-23T06:30:52;32.60;;;15.38;;
22525;SDS011;11429;50.842;4.386;2023-05-23T06:33:18;38.90;;;15.85;;
22525;SDS011;11429;50.842;4.386;2023-05-23T06:35:44;37.15;;;14.85;;
22525;SDS011;11429;50.842;4.386;2023-05-23T06:38:10;37.28;;;15.75;;
22525;SDS011;11429;50.842;4.386;2023-05-23T06:40:35;44.13;;;16.80;;
22525;SDS011;11429;50.842;4.386;2023-05-23T06:43:01;36.42;;;16.13;;
22525;SDS011;11429;50.842;4.386;2023-05-23T06:45:27;36.85;;;15.98;;
22525;SDS011;11429;50.842;4.386;2023-05-23T06:47:52;35.17;;;15.90;;
22525;SDS011;11429;50.842;4.386;2023-05-23T06:50:18;30.48;;;15.63;;
22525;SDS011;11429;50.842;4.386;2023-05-23T06:52:46;23.75;;;14.45;;
22525;SDS011;11429;50.842;4.386;2023-05-23T06:55:12;23.98;;;14.10;;
22525;SDS011;11429;50.842;4.386;2023-05-23T06:57:42;27.48;;;13.88;;
22525;SDS011;11429;50.842;4.386;2023-05-23T07:00:08;29.20;;;15.05;;
22525;SDS011;11429;50.842;4.386;2023-05-23T07:02:35;29.95;;;12.95;;
22525;SDS011;11429;50.842;4.386;2023-05-23T07:05:01;25.58;;;12.52;;
22525;SDS011;11429;50.842;4.386;2023-05-23T07:07:26;23.45;;;11.73;;
22525;SDS011;11429;50.842;4.386;2023-05-23T07:09:52;22.88;;;11.15;;
22525;SDS011;11429;50.842;4.386;2023-05-23T07:12:18;23.58;;;10.85;;
22525;SDS011;11429;50.842;4.386;2023-05-23T07:14:43;21.30;;;10.07;;
22525;SDS011;11429;50.842;4.386;2023-05-23T07:17:09;21.77;;;9.23;;
22525;SDS011;11429;50.842;4.386;2023-05-23T07:19:36;18.20;;;9.57;;
22525;SDS011;11429;50.842;4.386;2023-05-23T07:22:01;22.08;;;9.27;;
22525;SDS011;11429;50.842;4.386;2023-05-23T07:24:27;15.38;;;9.38;;
22525;SDS011;11429;50.842;4.386;2023-05-23T07:26:53;19.58;;;9.90;;
22525;SDS011;11429;50.842;4.386;2023-05-23T07:29:18;17.08;;;10.00;;
22525;SDS011;11429;50.842;4.386;2023-05-23T07:31:44;15.90;;;10.38;;
22525;SDS011;11429;50.842;4.386;2023-05-23T07:34:10;24.48;;;11.15;;
22525;SDS011;11429;50.842;4.386;2023-05-23T07:36:36;20.88;;;10.45;;
22525;SDS011;11429;50.842;4.386;2023-05-23T07:39:04;18.75;;;9.35;;
22525;SDS011;11429;50.842;4.386;2023-05-23T07:41:31;19.85;;;8.80;;
22525;SDS011;11429;50.842;4.386;2023-05-23T07:43:56;15.30;;;7.95;;
22525;SDS011;11429;50.842;4.386;2023-05-23T07:46:22;16.50;;;8.25;;
22525;SDS011;11429;50.842;4.386;2023-05-23T07:48:48;20.08;;;8.43;;
22525;SDS011;11429;50.842;4.386;2023-05-23T07:51:13;19.13;;;8.50;;
22525;SDS011;11429;50.842;4.386;2023-05-23T07:53:39;19.08;;;8.32;;
22525;SDS011;11429;50.842;4.386;2023-05-23T07:56:05;21.02;;;9.38;;
22525;SDS011;11429;50.842;4.386;2023-05-23T07:58:31;20.90;;;8.80;;
22525;SDS011;11429;50.842;4.386;2023-05-23T08:00:57;17.65;;;8.50;;
22525;SDS011;11429;50.842;4.386;2023-05-23T08:03:23;28.48;;;13.43;;
22525;SDS011;11429;50.842;4.386;2023-05-23T08:05:49;24.85;;;10.15;;
22525;SDS011;11429;50.842;4.386;2023-05-23T08:08:15;18.15;;;8.95;;
22525;SDS011;11429;50.842;4.386;2023-05-23T08:10:41;22.45;;;11.45;;
22525;SDS011;11429;50.842;4.386;2023-05-23T08:13:08;27.98;;;10.88;;
22525;SDS011;11429;50.842;4.386;2023-05-23T08:15:34;23.55;;;10.30;;
22525;SDS011;11429;50.842;4.386;2023-05-23T08:18:00;22.85;;;11.45;;
22525;SDS011;11429;50.842;4.386;2023-05-23T08:20:26;19.05;;;11.38;;
22525;SDS011;11429;50.842;4.386;2023-05-23T08:22:58;21.17;;;11.10;;
22525;SDS011;11429;50.842;4.386;2023-05-23T08:25:25;20.17;;;10.40;;
22525;SDS011;11429;50.842;4.386;2023-05-23T08:27:58;19.27;;;9.32;;
22525;SDS011;11429;50.842;4.386;2023-05-23T08:30:24;18.90;;;10.23;;
22525;SDS011;11429;50.842;4.386;2023-05-23T08:32:51;22.70;;;10.38;;
22525;SDS011;11429;50.842;4.386;2023-05-23T08:35:18;23.48;;;8.85;;
22525;SDS011;11429;50.842;4.386;2023-05-23T08:37:43;19.95;;;9.50;;
22525;SDS011;11429;50.842;4.386;2023-05-23T08:40:12;26.30;;;10.32;;
22525;SDS011;11429;50.842;4.386;2023-05-23T08:42:42;18.92;;;9.30;;
22525;SDS011;11429;50.842;4.386;2023-05-23T08:45:17;16.45;;;8.65;;
22525;SDS011;11429;50.842;4.386;2023-05-23T08:47:43;17.17;;;9.30;;
22525;SDS011;11429;50.842;4.386;2023-05-23T08:50:11;21.27;;;10.10;;
22525;SDS011;11429;50.842;4.386;2023-05-23T08:52:40;18.55;;;9.30;;
22525;SDS011;11429;50.842;4.386;2023-05-23T08:55:12;21.05;;;9.20;;
22525;SDS011;11429;50.842;4.386;2023-05-23T08:57:38;19.38;;;10.20;;
22525;SDS011;11429;50.842;4.386;2023-05-23T09:00:08;16.75;;;9.70;;
22525;SDS011;11429;50.842;4.386;2023-05-23T09:02:38;14.73;;;7.90;;
22525;SDS011;11429;50.842;4.386;2023-05-23T09:05:08;14.70;;;7.88;;
22525;SDS011;11429;50.842;4.386;2023-05-23T09:07:35;15.48;;;8.88;;
22525;SDS011;11429;50.842;4.386;2023-05-23T09:10:01;15.90;;;8.90;;
22525;SDS011;11429;50.842;4.386;2023-05-23T09:12:31;19.08;;;9.75;;
22525;SDS011;11429;50.842;4.386;2023-05-23T09:14:57;23.50;;;10.95;;
22525;SDS011;11429;50.842;4.386;2023-05-23T09:17:23;20.70;;;10.50;;
22525;SDS011;11429;50.842;4.386;2023-05-23T09:19:49;18.98;;;10.85;;
22525;SDS011;11429;50.842;4.386;2023-05-23T09:22:15;14.40;;;9.93;;
22525;SDS011;11429;50.842;4.386;2023-05-23T09:24:49;16.90;;;10.32;;
22525;SDS011;11429;50.842;4.386;2023-05-23T09:27:15;16.33;;;9.85;;
22525;SDS011;11429;50.842;4.386;2023-05-23T09:29:41;19.52;;;9.75;;
22525;SDS011;11429;50.842;4.386;2023-05-23T09:35:02;19.73;;;8.32;;
22525;SDS011;11429;50.842;4.386;2023-05-23T09:37:37;20.38;;;9.15;;
22525;SDS011;11429;50.842;4.386;2023-05-23T09:40:08;16.80;;;8.23;;
22525;SDS011;11429;50.842;4.386;2023-05-23T09:42:44;14.95;;;8.40;;
22525;SDS011;11429;50.842;4.386;2023-05-23T09:45:14;19.50;;;9.85;;
22525;SDS011;11429;50.842;4.386;2023-05-23T09:47:50;20.55;;;10.48;;
22525;SDS011;11429;50.842;4.386;2023-05-23T09:50:17;17.30;;;8.98;;
22525;SDS011;11429;50.842;4.386;2023-05-23T09:52:43;19.27;;;10.07;;
22525;SDS011;11429;50.842;4.386;2023-05-23T09:55:10;21.45;;;11.43;;
22525;SDS011;11429;50.842;4.386;2023-05-23T09:57:40;22.52;;;9.93;;
22525;SDS011;11429;50.842;4.386;2023-05-23T10:00:07;24.65;;;11.30;;
22525;SDS011;11429;50.842;4.386;2023-05-23T10:05:26;16.80;;;10.40;;
22525;SDS011;11429;50.842;4.386;2023-05-23T10:07:58;19.55;;;10.02;;
22525;SDS011;11429;50.842;4.386;2023-05-23T10:10:27;20.90;;;11.07;;
22525;SDS011;11429;50.842;4.386;2023-05-23T10:12:57;21.77;;;11.93;;
22525;SDS011;11429;50.842;4.386;2023-05-23T10:15:26;17.55;;;10.82;;
22525;SDS011;11429;50.842;4.386;2023-05-23T10:20:37;15.57;;;8.70;;
22525;SDS011;11429;50.842;4.386;2023-05-23T10:23:07;16.60;;;8.30;;
22525;SDS011;11429;50.842;4.386;2023-05-23T10:25:33;15.95;;;8.18;;
22525;SDS011;11429;50.842;4.386;2023-05-23T10:28:01;11.25;;;7.15;;
22525;SDS011;11429;50.842;4.386;2023-05-23T10:30:28;14.68;;;7.70;;
22525;SDS011;11429;50.842;4.386;2023-05-23T10:32:54;12.35;;;6.93;;
22525;SDS011;11429;50.842;4.386;2023-05-23T10:35:22;13.40;;;6.03;;
22525;SDS011;11429;50.842;4.386;2023-05-23T10:43:28;10.88;;;4.55;;
22525;SDS011;11429;50.842;4.386;2023-05-23T10:46:00;12.33;;;3.77;;
22525;SDS011;11429;50.842;4.386;2023-05-23T10:48:33;13.02;;;5.22;;
22525;SDS011;11429;50.842;4.386;2023-05-23T10:51:08;10.73;;;4.70;;
22525;SDS011;11429;50.842;4.386;2023-05-23T10:53:36;10.63;;;5.10;;
22525;SDS011;11429;50.842;4.386;2023-05-23T10:56:13;14.63;;;4.90;;
22525;SDS011;11429;50.842;4.386;2023-05-23T10:58:46;17.73;;;5.38;;
22525;SDS011;11429;50.842;4.386;2023-05-23T11:01:20;10.48;;;5.00;;
22525;SDS011;11429;50.842;4.386;2023-05-23T11:06:30;12.00;;;4.22;;
22525;SDS011;11429;50.842;4.386;2023-05-23T11:09:15;12.18;;;3.75;;
22525;SDS011;11429;50.842;4.386;2023-05-23T11:11:55;9.23;;;3.33;;
22525;SDS011;11429;50.842;4.386;2023-05-23T11:16:58;11.55;;;3.30;;
22525;SDS011;11429;50.842;4.386;2023-05-23T11:19:26;7.13;;;3.83;;
22525;SDS011;11429;50.842;4.386;2023-05-23T11:22:02;11.90;;;4.22;;
22525;SDS011;11429;50.842;4.386;2023-05-23T11:24:50;16.45;;;4.28;;
22525;SDS011;11429;50.842;4.386;2023-05-23T11:29:59;17.95;;;4.40;;
22525;SDS011;11429;50.842;4.386;2023-05-23T11:32:29;13.85;;;4.65;;
22525;SDS011;11429;50.842;4.386;2023-05-23T11:34:58;16.52;;;4.35;;
22525;SDS011;11429;50.842;4.386;2023-05-23T11:37:28;9.38;;;3.35;;
22525;SDS011;11429;50.842;4.386;2023-05-23T11:39:55;16.80;;;6.50;;
22525;SDS011;11429;50.842;4.386;2023-05-23T11:42:21;15.48;;;4.68;;
22525;SDS011;11429;50.842;4.386;2023-05-23T11:44:48;14.30;;;3.65;;
22525;SDS011;11429;50.842;4.386;2023-05-23T11:47:16;13.80;;;4.28;;
22525;SDS011;11429;50.842;4.386;2023-05-23T11:49:43;23.38;;;4.82;;
22525;SDS011;11429;50.842;4.386;2023-05-23T11:52:11;22.67;;;4.72;;
22525;SDS011;11429;50.842;4.386;2023-05-23T11:54:38;16.08;;;4.57;;
22525;SDS011;11429;50.842;4.386;2023-05-23T11:57:06;12.20;;;4.13;;
22525;SDS011;11429;50.842;4.386;2023-05-23T11:59:32;18.30;;;4.53;;
22525;SDS011;11429;50.842;4.386;2023-05-23T12:02:00;19.08;;;4.40;;
22525;SDS011;11429;50.842;4.386;2023-05-23T12:04:27;17.25;;;4.63;;
22525;SDS011;11429;50.842;4.386;2023-05-23T12:06:53;16.50;;;4.05;;
22525;SDS011;11429;50.842;4.386;2023-05-23T12:09:19;14.70;;;4.13;;
22525;SDS011;11429;50.842;4.386;2023-05-23T12:11:45;18.95;;;4.65;;
22525;SDS011;11429;50.842;4.386;2023-05-23T12:14:13;19.02;;;4.78;;
22525;SDS011;11429;50.842;4.386;2023-05-23T12:16:43;15.70;;;4.15;;
22525;SDS011;11429;50.842;4.386;2023-05-23T12:19:12;18.17;;;4.30;;
22525;SDS011;11429;50.842;4.386;2023-05-23T12:21:44;21.35;;;4.07;;
22525;SDS011;11429;50.842;4.386;2023-05-23T12:24:14;13.60;;;5.32;;
22525;SDS011;11429;50.842;4.386;2023-05-23T12:26:45;15.43;;;3.90;;
22525;SDS011;11429;50.842;4.386;2023-05-23T12:29:12;19.45;;;4.25;;
22525;SDS011;11429;50.842;4.386;2023-05-23T12:31:37;15.40;;;4.57;;
22525;SDS011;11429;50.842;4.386;2023-05-23T12:34:07;17.90;;;4.50;;
22525;SDS011;11429;50.842;4.386;2023-05-23T12:36:35;17.33;;;4.40;;
22525;SDS011;11429;50.842;4.386;2023-05-23T12:39:04;13.55;;;3.28;;
22525;SDS011;11429;50.842;4.386;2023-05-23T12:41:33;14.05;;;4.10;;
22525;SDS011;11429;50.842;4.386;2023-05-23T12:43:58;15.23;;;4.00;;
22525;SDS011;11429;50.842;4.386;2023-05-23T12:49:44;22.48;;;4.30;;
22525;SDS011;11429;50.842;4.386;2023-05-23T12:52:14;12.63;;;3.70;;
22525;SDS011;11429;50.842;4.386;2023-05-23T12:54:42;16.85;;;3.75;;
22525;SDS011;11429;50.842;4.386;2023-05-23T12:57:08;16.13;;;4.18;;
22525;SDS011;11429;50.842;4.386;2023-05-23T12:59:33;15.80;;;3.90;;
22525;SDS011;11429;50.842;4.386;2023-05-23T13:01:59;15.57;;;4.15;;
22525;SDS011;11429;50.842;4.386;2023-05-23T13:04:26;19.40;;;4.15;;
22525;SDS011;11429;50.842;4.386;2023-05-23T13:06:52;20.27;;;5.03;;
22525;SDS011;11429;50.842;4.386;2023-05-23T13:09:18;17.80;;;5.03;;
22525;SDS011;11429;50.842;4.386;2023-05-23T13:11:44;14.93;;;4.40;;
22525;SDS011;11429;50.842;4.386;2023-05-23T13:14:10;16.23;;;4.07;;
22525;SDS011;11429;50.842;4.386;2023-05-23T13:16:37;19.02;;;4.60;;
22525;SDS011;11429;50.842;4.386;2023-05-23T13:19:03;15.52;;;4.72;;
22525;SDS011;11429;50.842;4.386;2023-05-23T13:21:28;19.30;;;4.55;;
22525;SDS011;11429;50.842;4.386;2023-05-23T13:23:55;16.73;;;4.40;;
22525;SDS011;11429;50.842;4.386;2023-05-23T13:26:21;12.75;;;4.00;;
22525;SDS011;11429;50.842;4.386;2023-05-23T13:28:47;21.52;;;5.70;;
22525;SDS011;11429;50.842;4.386;2023-05-23T13:31:12;21.77;;;5.32;;
22525;SDS011;11429;50.842;4.386;2023-05-23T13:33:38;20.80;;;5.38;;
22525;SDS011;11429;50.842;4.386;2023-05-23T13:36:04;13.50;;;4.03;;
22525;SDS011;11429;50.842;4.386;2023-05-23T13:38:29;20.65;;;4.63;;
22525;SDS011;11429;50.842;4.386;2023-05-23T13:40:56;16.38;;;3.92;;
22525;SDS011;11429;50.842;4.386;2023-05-23T13:43:21;19.35;;;6.13;;
22525;SDS011;11429;50.842;4.386;2023-05-23T13:45:48;19.77;;;5.47;;
22525;SDS011;11429;50.842;4.386;2023-05-23T13:48:13;14.55;;;4.03;;
22525;SDS011;11429;50.842;4.386;2023-05-23T13:50:39;20.38;;;6.00;;
22525;SDS011;11429;50.842;4.386;2023-05-23T13:53:06;23.13;;;4.50;;
22525;SDS011;11429;50.842;4.386;2023-05-23T13:55:38;20.90;;;4.38;;
22525;SDS011;11429;50.842;4.386;2023-05-23T13:58:04;15.20;;;4.53;;
22525;SDS011;11429;50.842;4.386;2023-05-23T14:00:29;24.35;;;8.95;;
22525;SDS011;11429;50.842;4.386;2023-05-23T14:02:55;20.65;;;4.47;;
22525;SDS011;11429;50.842;4.386;2023-05-23T14:05:20;17.63;;;4.70;;
22525;SDS011;11429;50.842;4.386;2023-05-23T14:07:46;17.92;;;4.00;;
22525;SDS011;11429;50.842;4.386;2023-05-23T14:10:12;16.23;;;3.80;;
22525;SDS011;11429;50.842;4.386;2023-05-23T14:12:39;23.05;;;5.22;;
22525;SDS011;11429;50.842;4.386;2023-05-23T14:15:04;17.75;;;3.92;;
22525;SDS011;11429;50.842;4.386;2023-05-23T14:17:30;14.93;;;4.00;;
22525;SDS011;11429;50.842;4.386;2023-05-23T14:19:56;17.52;;;4.60;;
22525;SDS011;11429;50.842;4.386;2023-05-23T14:22:22;11.82;;;3.35;;
22525;SDS011;11429;50.842;4.386;2023-05-23T14:24:48;12.40;;;4.63;;
22525;SDS011;11429;50.842;4.386;2023-05-23T14:27:14;15.43;;;3.83;;
22525;SDS011;11429;50.842;4.386;2023-05-23T14:29:39;19.20;;;3.88;;
22525;SDS011;11429;50.842;4.386;2023-05-23T14:32:05;19.48;;;4.28;;
22525;SDS011;11429;50.842;4.386;2023-05-23T14:34:31;19.10;;;4.03;;
22525;SDS011;11429;50.842;4.386;2023-05-23T14:36:56;14.25;;;3.38;;
22525;SDS011;11429;50.842;4.386;2023-05-23T14:39:22;19.33;;;4.22;;
22525;SDS011;11429;50.842;4.386;2023-05-23T14:41:49;17.38;;;4.25;;
22525;SDS011;11429;50.842;4.386;2023-05-23T14:44:15;22.88;;;5.05;;
22525;SDS011;11429;50.842;4.386;2023-05-23T14:46:40;15.73;;;4.22;;
22525;SDS011;11429;50.842;4.386;2023-05-23T14:49:12;18.05;;;3.80;;
22525;SDS011;11429;50.842;4.386;2023-05-23T14:51:37;13.55;;;4.00;;
22525;SDS011;11429;50.842;4.386;2023-05-23T14:54:03;16.75;;;3.90;;
22525;SDS011;11429;50.842;4.386;2023-05-23T14:56:29;17.77;;;4.13;;
22525;SDS011;11429;50.842;4.386;2023-05-23T14:58:54;14.60;;;3.83;;